createdAt,value
2022-08-19T00:00:13.569Z,19.35
2022-08-19T00:02:50.205Z,19.36
2022-08-19T00:05:20.189Z,19.06
2022-08-19T00:07:51.453Z,18.92
2022-08-19T00:10:21.088Z,19.01
2022-08-19T00:12:49.394Z,19.21
2022-08-19T00:15:20.521Z,19.17
2022-08-19T00:17:49.886Z,19.19
2022-08-19T00:20:22.369Z,19.28
2022-08-19T00:22:50.593Z,19.20
2022-08-19T00:25:19.358Z,18.95
2022-08-19T00:28:01.880Z,19.11
2022-08-19T00:30:30.015Z,19.18
2022-08-19T00:32:58.884Z,19.03
2022-08-19T00:35:28.514Z,19.12
2022-08-19T00:37:57.326Z,18.83
2022-08-19T00:40:26.148Z,18.87
2022-08-19T00:42:57.299Z,19.12
2022-08-19T00:45:31.735Z,18.84
2022-08-19T00:48:04.922Z,18.99
2022-08-19T00:50:34.205Z,18.96
2022-08-19T00:53:06.063Z,18.65
2022-08-19T00:55:35.040Z,18.83
2022-08-19T00:58:11.293Z,18.65
2022-08-19T01:00:39.832Z,18.57
2022-08-19T01:03:12.237Z,18.51
2022-08-19T01:05:44.434Z,18.51
2022-08-19T01:08:15.134Z,18.37
2022-08-19T01:10:57.392Z,18.01
2022-08-19T01:13:44.438Z,18.44
2022-08-19T01:16:20.478Z,18.58
2022-08-19T01:18:50.372Z,18.18
2022-08-19T01:21:39.094Z,18.35
2022-08-19T01:24:07.596Z,18.53
2022-08-19T01:26:45.526Z,18.32
2022-08-19T01:29:15.910Z,18.36
2022-08-19T01:31:43.843Z,18.17
2022-08-19T01:34:11.875Z,18.45
2022-08-19T01:36:50.402Z,18.38
2022-08-19T01:39:25.210Z,17.95
2022-08-19T01:41:55.619Z,18.25
2022-08-19T01:44:25.150Z,18.23
2022-08-19T01:46:53.617Z,18.12
2022-08-19T01:49:26.346Z,18.08
2022-08-19T01:51:55.897Z,17.85
2022-08-19T01:54:27.878Z,18.11
2022-08-19T01:57:09.824Z,18.12
2022-08-19T01:59:38.182Z,17.80
2022-08-19T02:02:09.793Z,17.99
2022-08-19T02:04:39.843Z,17.92
2022-08-19T02:07:09.389Z,17.89
2022-08-19T02:09:37.611Z,17.90
2022-08-19T02:12:09.368Z,17.82
2022-08-19T02:14:37.976Z,17.72
2022-08-19T02:17:06.471Z,17.74
2022-08-19T02:19:34.703Z,17.68
2022-08-19T02:22:02.825Z,17.86
2022-08-19T02:24:30.809Z,17.85
2022-08-19T02:26:59.909Z,17.66
2022-08-19T02:29:28.071Z,17.22
2022-08-19T02:31:57.426Z,17.69
2022-08-19T02:34:26.221Z,17.61
2022-08-19T02:36:54.420Z,17.89
2022-08-19T02:39:22.388Z,17.62
2022-08-19T02:41:51.217Z,17.74
2022-08-19T02:44:29.060Z,17.63
2022-08-19T02:47:00.729Z,17.63
2022-08-19T02:49:29.025Z,17.60
2022-08-19T02:51:57.001Z,17.76
2022-08-19T02:54:25.222Z,17.76
2022-08-19T02:56:53.601Z,17.71
2022-08-19T02:59:22.970Z,17.66
2022-08-19T03:01:51.466Z,17.67
2022-08-19T03:04:20.591Z,17.38
2022-08-19T03:06:49.386Z,17.38
2022-08-19T03:09:20.294Z,17.56
2022-08-19T03:11:48.981Z,17.55
2022-08-19T03:14:20.644Z,17.10
2022-08-19T03:16:53.577Z,17.50
2022-08-19T03:19:22.504Z,17.53
2022-08-19T03:21:52.344Z,17.47
2022-08-19T03:24:21.350Z,17.53
2022-08-19T03:26:53.983Z,17.52
2022-08-19T03:29:30.438Z,17.52
2022-08-19T03:32:05.959Z,17.36
2022-08-19T03:34:37.351Z,17.57
2022-08-19T03:37:13.236Z,17.45
2022-08-19T03:39:43.405Z,17.56
2022-08-19T03:42:32.307Z,17.52
2022-08-19T03:45:00.806Z,17.59
2022-08-19T03:47:28.984Z,17.01
2022-08-19T03:49:56.886Z,17.64
2022-08-19T03:52:25.008Z,17.48
2022-08-19T03:54:52.972Z,17.70
2022-08-19T03:57:20.883Z,17.44
2022-08-19T03:59:53.639Z,17.73
2022-08-19T04:02:22.476Z,17.79
2022-08-19T04:04:54.794Z,17.74
2022-08-19T04:07:22.750Z,17.83
2022-08-19T04:09:51.562Z,17.89
2022-08-19T04:12:21.472Z,17.66
2022-08-19T04:14:49.848Z,18.06
2022-08-19T04:17:17.679Z,18.15
2022-08-19T04:19:45.853Z,18.22
2022-08-19T04:22:14.233Z,18.31
2022-08-19T04:24:42.180Z,18.42
2022-08-19T04:27:10.212Z,18.53
2022-08-19T04:29:40.605Z,18.66
2022-08-19T04:32:09.791Z,18.75
2022-08-19T04:35:01.608Z,18.69
2022-08-19T04:37:34.927Z,18.82
2022-08-19T04:40:26.115Z,19.02
2022-08-19T04:42:55.206Z,19.10
2022-08-19T04:45:23.613Z,19.48
2022-08-19T04:47:58.390Z,19.70
2022-08-19T04:50:30.449Z,20.11
2022-08-19T04:52:58.522Z,20.34
2022-08-19T04:55:27.020Z,20.46
2022-08-19T04:57:57.677Z,20.81
2022-08-19T05:00:26.000Z,20.75
2022-08-19T05:02:54.073Z,21.41
2022-08-19T05:05:22.502Z,21.53
2022-08-19T05:07:50.662Z,21.48
2022-08-19T05:10:18.898Z,21.90
2022-08-19T05:12:47.111Z,22.16
2022-08-19T05:15:15.370Z,22.30
2022-08-19T05:18:03.343Z,22.37
2022-08-19T05:20:51.766Z,22.56
2022-08-19T05:23:22.733Z,22.63
2022-08-19T05:25:52.839Z,22.55
2022-08-19T05:28:22.531Z,22.77
2022-08-19T05:30:52.011Z,22.98
2022-08-19T05:33:20.414Z,23.23
2022-08-19T05:35:50.517Z,23.33
2022-08-19T05:38:19.656Z,23.83
2022-08-19T05:40:50.715Z,24.06
2022-08-19T05:43:18.697Z,24.41
2022-08-19T05:45:48.275Z,24.66
2022-08-19T05:48:18.633Z,24.94
2022-08-19T05:50:46.828Z,25.23
2022-08-19T05:53:17.452Z,25.47
2022-08-19T05:55:45.661Z,25.13
2022-08-19T05:58:13.782Z,25.67
2022-08-19T06:00:45.078Z,25.50
2022-08-19T06:03:13.459Z,25.86
2022-08-19T06:05:49.564Z,26.18
2022-08-19T06:08:21.029Z,26.48
2022-08-19T06:11:33.798Z,26.57
2022-08-19T06:14:09.564Z,26.37
2022-08-19T06:16:45.587Z,26.30
2022-08-19T06:19:18.182Z,26.29
2022-08-19T06:21:49.088Z,26.26
2022-08-19T06:24:19.837Z,26.28
2022-08-19T06:26:59.290Z,26.48
2022-08-19T06:30:02.722Z,26.69
2022-08-19T06:32:31.279Z,26.91
2022-08-19T06:34:59.400Z,27.14
2022-08-19T06:37:27.522Z,27.02
2022-08-19T06:39:55.663Z,27.06
2022-08-19T06:42:24.018Z,27.08
2022-08-19T06:44:53.157Z,27.00
2022-08-19T06:47:23.787Z,26.77
2022-08-19T06:50:03.736Z,26.81
2022-08-19T06:52:40.446Z,26.99
2022-08-19T06:55:09.911Z,27.20
2022-08-19T06:57:38.069Z,27.42
2022-08-19T07:00:13.047Z,27.47
2022-08-19T07:02:49.817Z,27.60
2022-08-19T07:05:25.940Z,27.72
2022-08-19T07:07:54.000Z,27.96
2022-08-19T07:10:26.520Z,27.82
2022-08-19T07:12:55.150Z,27.98
2022-08-19T07:15:24.329Z,28.06
2022-08-19T07:17:52.947Z,28.32
2022-08-19T07:20:21.500Z,28.48
2022-08-19T07:22:49.678Z,28.81
2022-08-19T07:25:19.810Z,28.95
2022-08-19T07:27:54.580Z,29.01
2022-08-19T07:30:26.289Z,29.09
2022-08-19T07:32:54.889Z,29.55
2022-08-19T07:35:58.922Z,29.50
2022-08-19T07:38:27.189Z,29.67
2022-08-19T07:40:55.404Z,29.75
2022-08-19T07:43:34.938Z,29.96
2022-08-19T07:46:03.549Z,29.86
2022-08-19T07:48:31.926Z,29.79
2022-08-19T07:51:05.157Z,29.76
2022-08-19T07:53:37.912Z,29.97
2022-08-19T07:56:08.849Z,29.63
2022-08-19T07:58:41.353Z,29.89
2022-08-19T08:01:20.054Z,29.82
2022-08-19T08:04:11.242Z,30.13
2022-08-19T08:06:58.353Z,30.29
2022-08-19T08:09:49.517Z,30.31
2022-08-19T08:12:36.715Z,30.07
2022-08-19T08:15:19.956Z,30.17
2022-08-19T08:17:53.346Z,30.25
2022-08-19T08:20:21.790Z,30.26
2022-08-19T08:23:08.943Z,30.61
2022-08-19T08:25:38.551Z,30.80
2022-08-19T08:28:08.565Z,30.64
2022-08-19T08:30:45.159Z,30.47
2022-08-19T08:33:13.532Z,30.92
2022-08-19T08:35:43.493Z,30.91
2022-08-19T08:38:11.556Z,30.98
2022-08-19T08:41:05.724Z,31.17
2022-08-19T08:43:45.283Z,30.90
2022-08-19T08:46:42.197Z,31.28
2022-08-19T08:49:13.432Z,31.51
2022-08-19T08:52:06.218Z,31.00
2022-08-19T08:54:55.043Z,31.69
2022-08-19T08:58:00.462Z,31.04
2022-08-19T09:00:39.353Z,30.70
2022-08-19T09:03:31.530Z,31.27
2022-08-19T09:06:13.039Z,31.46
2022-08-19T09:09:12.501Z,31.26
2022-08-19T09:12:02.579Z,31.04
2022-08-19T09:15:02.980Z,31.18
2022-08-19T09:17:34.670Z,31.12
2022-08-19T09:20:10.685Z,30.75
2022-08-19T09:22:41.208Z,31.91
2022-08-19T09:25:13.281Z,31.78
2022-08-19T09:27:43.783Z,31.67
2022-08-19T09:30:26.353Z,31.37
2022-08-19T09:32:55.753Z,31.47
2022-08-19T09:35:30.211Z,32.05
2022-08-19T09:38:00.804Z,31.84
2022-08-19T09:40:31.924Z,31.84
2022-08-19T09:43:10.012Z,31.64
2022-08-19T09:45:41.717Z,32.09
2022-08-19T09:48:11.672Z,32.00
2022-08-19T09:50:52.001Z,32.15
2022-08-19T09:53:25.481Z,31.81
2022-08-19T09:55:56.491Z,32.38
2022-08-19T09:58:28.793Z,32.53
2022-08-19T10:00:59.482Z,32.25
2022-08-19T10:03:29.912Z,32.25
2022-08-19T10:06:03.002Z,31.62
2022-08-19T10:08:36.054Z,32.54
2022-08-19T10:11:28.034Z,32.52
2022-08-19T10:13:54.928Z,32.58
2022-08-19T10:16:30.103Z,32.39
2022-08-19T10:18:59.346Z,31.96
2022-08-19T10:21:32.021Z,32.68
2022-08-19T10:24:05.160Z,32.39
2022-08-19T10:26:38.324Z,32.05
2022-08-19T10:29:09.285Z,32.21
2022-08-19T10:32:00.082Z,32.85
2022-08-19T10:34:28.566Z,32.84
2022-08-19T10:37:00.917Z,33.17
2022-08-19T10:39:43.429Z,33.65
2022-08-19T10:42:14.222Z,33.67
2022-08-19T10:44:42.872Z,33.70
2022-08-19T10:47:17.272Z,33.13
2022-08-19T10:50:13.876Z,33.62
2022-08-19T10:52:50.267Z,33.29
2022-08-19T10:55:41.624Z,33.59
2022-08-19T10:58:23.359Z,33.81
2022-08-19T11:00:59.998Z,33.52
2022-08-19T11:03:31.864Z,33.57
2022-08-19T11:06:08.204Z,33.52
2022-08-19T11:08:39.069Z,33.79
2022-08-19T11:11:08.100Z,33.59
2022-08-19T11:13:40.164Z,33.49
2022-08-19T11:16:14.636Z,34.11
2022-08-19T11:18:50.263Z,34.88
2022-08-19T11:21:22.200Z,34.62
2022-08-19T11:23:54.380Z,34.44
2022-08-19T11:26:26.102Z,33.75
2022-08-19T11:28:56.148Z,34.02
2022-08-19T11:31:31.893Z,34.51
2022-08-19T11:34:04.336Z,34.07
2022-08-19T11:36:35.779Z,33.83
2022-08-19T11:39:08.025Z,34.09
2022-08-19T11:41:36.534Z,33.83
2022-08-19T11:44:05.698Z,34.01
2022-08-19T11:46:33.866Z,33.93
2022-08-19T11:49:04.503Z,34.51
2022-08-19T11:51:33.208Z,33.99
2022-08-19T11:54:02.157Z,33.96
2022-08-19T11:56:31.260Z,34.18
2022-08-19T11:58:59.677Z,34.55
2022-08-19T12:01:28.598Z,35.05
2022-08-19T12:03:58.212Z,34.18
2022-08-19T12:06:30.849Z,34.02
2022-08-19T12:09:05.159Z,34.24
2022-08-19T12:11:34.491Z,34.30
2022-08-19T12:14:03.007Z,34.38
2022-08-19T12:16:33.739Z,33.71
2022-08-19T12:19:05.379Z,33.59
2022-08-19T12:21:36.336Z,34.47
2022-08-19T12:24:07.097Z,34.31
2022-08-19T12:26:52.554Z,35.23
2022-08-19T12:29:24.330Z,34.97
2022-08-19T12:31:52.846Z,34.95
2022-08-19T12:34:21.363Z,34.36
2022-08-19T12:36:51.074Z,34.91
2022-08-19T12:39:19.199Z,35.29
2022-08-19T12:41:51.388Z,34.12
2022-08-19T12:44:29.338Z,34.25
2022-08-19T12:47:00.953Z,34.67
2022-08-19T12:49:52.336Z,34.85
2022-08-19T12:52:23.468Z,35.35
2022-08-19T12:54:54.913Z,35.60
2022-08-19T12:57:32.166Z,34.65
2022-08-19T13:00:22.333Z,33.77
2022-08-19T13:02:53.487Z,34.45
2022-08-19T13:05:25.968Z,33.97
2022-08-19T13:08:00.740Z,34.36
2022-08-19T13:10:36.473Z,34.50
2022-08-19T13:13:08.685Z,34.60
2022-08-19T13:15:41.264Z,34.65
2022-08-19T13:18:11.448Z,34.62
2022-08-19T13:20:41.783Z,35.27
2022-08-19T13:23:10.668Z,35.26
2022-08-19T13:25:38.687Z,35.18
2022-08-19T13:28:07.650Z,34.42
2022-08-19T13:30:54.590Z,34.26
2022-08-19T13:33:22.635Z,34.10
2022-08-19T13:36:02.016Z,34.98
2022-08-19T13:38:31.538Z,34.86
2022-08-19T13:41:10.978Z,34.57
2022-08-19T13:43:39.348Z,34.56
2022-08-19T13:46:15.250Z,34.31
2022-08-19T13:48:44.001Z,34.69
2022-08-19T13:51:12.087Z,34.87
2022-08-19T13:53:47.385Z,35.04
2022-08-19T13:56:24.138Z,33.30
2022-08-19T13:58:54.733Z,33.78
2022-08-19T14:01:27.766Z,33.09
2022-08-19T14:03:55.936Z,33.53
2022-08-19T14:06:24.275Z,34.05
2022-08-19T14:08:53.705Z,33.73
2022-08-19T14:11:24.166Z,33.46
2022-08-19T14:13:52.676Z,34.43
2022-08-19T14:16:22.629Z,33.77
2022-08-19T14:18:50.737Z,34.00
2022-08-19T14:21:24.729Z,34.16
2022-08-19T14:23:54.284Z,34.26
2022-08-19T14:26:25.264Z,34.65
2022-08-19T14:28:53.899Z,34.46
2022-08-19T14:31:29.020Z,33.73
2022-08-19T14:33:58.912Z,33.65
2022-08-19T14:36:27.184Z,33.49
2022-08-19T14:38:55.317Z,33.77
2022-08-19T14:41:24.735Z,33.85
2022-08-19T14:43:55.811Z,33.59
2022-08-19T14:46:29.509Z,33.61
2022-08-19T14:48:59.886Z,33.78
2022-08-19T14:51:29.343Z,33.02
2022-08-19T14:53:57.908Z,33.34
2022-08-19T14:56:30.352Z,33.02
2022-08-19T14:59:02.058Z,33.39
2022-08-19T15:01:30.154Z,33.22
2022-08-19T15:03:58.615Z,33.27
2022-08-19T15:06:27.389Z,33.33
2022-08-19T15:08:58.639Z,32.67
2022-08-19T15:11:30.713Z,32.94
2022-08-19T15:13:59.226Z,32.45
2022-08-19T15:16:28.199Z,31.62
2022-08-19T15:19:00.174Z,31.94
2022-08-19T15:21:30.387Z,31.71
2022-08-19T15:24:00.908Z,31.98
2022-08-19T15:26:32.888Z,32.20
2022-08-19T15:29:02.800Z,32.06
2022-08-19T15:31:38.824Z,31.90
2022-08-19T15:34:08.152Z,32.05
2022-08-19T15:36:37.940Z,31.73
2022-08-19T15:39:07.500Z,31.28
2022-08-19T15:41:37.010Z,31.84
2022-08-19T15:44:10.814Z,32.00
2022-08-19T15:46:43.021Z,31.71
2022-08-19T15:49:15.051Z,31.21
2022-08-19T15:51:45.487Z,31.88
2022-08-19T15:54:18.184Z,31.76
2022-08-19T15:57:05.186Z,31.18
2022-08-19T15:59:54.030Z,31.00
2022-08-19T16:02:47.061Z,30.85
2022-08-19T16:05:39.284Z,31.33
2022-08-19T16:08:10.120Z,31.20
2022-08-19T16:10:39.774Z,30.99
2022-08-19T16:13:07.916Z,31.26
2022-08-19T16:15:36.312Z,31.44
2022-08-19T16:18:05.241Z,31.04
2022-08-19T16:20:33.333Z,31.16
2022-08-19T16:23:05.406Z,31.13
2022-08-19T16:25:33.478Z,31.14
2022-08-19T16:28:07.423Z,30.94
2022-08-19T16:30:41.938Z,30.60
2022-08-19T16:33:10.751Z,30.53
2022-08-19T16:35:39.193Z,30.72
2022-08-19T16:38:07.512Z,30.43
2022-08-19T16:40:35.669Z,30.22
2022-08-19T16:43:04.467Z,29.96
2022-08-19T16:45:33.269Z,29.92
2022-08-19T16:48:01.287Z,30.10
2022-08-19T16:50:48.347Z,29.73
2022-08-19T16:53:22.831Z,29.74
2022-08-19T16:55:53.335Z,29.77
2022-08-19T16:58:29.370Z,29.60
2022-08-19T17:01:03.782Z,29.40
2022-08-19T17:03:36.038Z,29.37
2022-08-19T17:06:18.976Z,29.16
2022-08-19T17:08:52.258Z,29.00
2022-08-19T17:11:22.720Z,28.80
2022-08-19T17:13:51.337Z,28.63
2022-08-19T17:16:24.901Z,28.49
2022-08-19T17:18:56.101Z,28.23
2022-08-19T17:21:32.144Z,28.03
2022-08-19T17:24:03.534Z,27.91
2022-08-19T17:26:32.193Z,27.75
2022-08-19T17:29:01.197Z,27.58
2022-08-19T17:31:31.519Z,27.49
2022-08-19T17:34:00.621Z,27.25
2022-08-19T17:36:31.980Z,26.98
2022-08-19T17:39:02.192Z,27.04
2022-08-19T17:41:30.996Z,26.96
2022-08-19T17:43:59.007Z,26.65
2022-08-19T17:46:30.764Z,26.60
2022-08-19T17:48:59.724Z,26.72
2022-08-19T17:51:42.324Z,26.61
2022-08-19T17:54:15.577Z,26.49
2022-08-19T17:56:45.439Z,26.36
2022-08-19T17:59:14.922Z,26.30
2022-08-19T18:01:53.543Z,26.01
2022-08-19T18:04:25.250Z,26.06
2022-08-19T18:06:55.822Z,25.81
2022-08-19T18:09:42.326Z,25.91
2022-08-19T18:12:13.795Z,25.84
2022-08-19T18:14:43.731Z,25.74
2022-08-19T18:17:17.609Z,25.68
2022-08-19T18:19:48.039Z,25.57
2022-08-19T18:22:28.175Z,25.47
2022-08-19T18:24:58.633Z,25.26
2022-08-19T18:27:28.355Z,25.31
2022-08-19T18:30:00.039Z,25.25
2022-08-19T18:32:39.378Z,25.14
2022-08-19T18:35:14.579Z,24.92
2022-08-19T18:37:44.375Z,24.92
2022-08-19T18:40:39.874Z,25.01
2022-08-19T18:43:27.235Z,24.95
2022-08-19T18:46:14.381Z,24.69
2022-08-19T18:49:01.129Z,24.56
2022-08-19T18:51:32.713Z,24.72
2022-08-19T18:54:01.551Z,24.46
2022-08-19T18:56:35.025Z,24.61
2022-08-19T18:59:03.611Z,24.53
2022-08-19T19:01:39.806Z,24.44
2022-08-19T19:04:13.492Z,24.40
2022-08-19T19:06:43.117Z,24.31
2022-08-19T19:09:17.524Z,24.06
2022-08-19T19:11:51.250Z,24.26
2022-08-19T19:14:49.071Z,23.99
2022-08-19T19:17:18.837Z,24.11
2022-08-19T19:19:48.003Z,23.73
2022-08-19T19:22:21.471Z,23.86
2022-08-19T19:24:51.119Z,23.87
2022-08-19T19:27:21.522Z,23.87
2022-08-19T19:29:52.449Z,23.84
2022-08-19T19:32:36.919Z,23.74
2022-08-19T19:35:10.765Z,23.70
2022-08-19T19:37:39.017Z,23.44
2022-08-19T19:40:08.009Z,23.52
2022-08-19T19:42:36.957Z,23.25
2022-08-19T19:45:05.595Z,23.48
2022-08-19T19:47:34.818Z,23.40
2022-08-19T19:50:18.350Z,23.28
2022-08-19T19:52:48.016Z,23.18
2022-08-19T19:55:18.970Z,23.20
2022-08-19T19:57:49.162Z,23.19
2022-08-19T20:00:19.223Z,23.15
2022-08-19T20:02:51.028Z,23.15
2022-08-19T20:05:23.520Z,22.94
2022-08-19T20:08:12.648Z,23.18
2022-08-19T20:10:43.268Z,22.99
2022-08-19T20:13:13.744Z,23.20
2022-08-19T20:15:45.972Z,22.87
2022-08-19T20:18:14.879Z,23.12
2022-08-19T20:20:44.501Z,23.08
2022-08-19T20:23:13.513Z,23.13
2022-08-19T20:25:42.369Z,23.07
2022-08-19T20:28:12.130Z,23.02
2022-08-19T20:30:46.533Z,22.99
2022-08-19T20:33:15.235Z,22.91
2022-08-19T20:35:44.919Z,22.72
2022-08-19T20:38:13.959Z,22.51
2022-08-19T20:40:42.316Z,22.89
2022-08-19T20:43:13.397Z,22.65
2022-08-19T20:45:41.684Z,22.84
2022-08-19T20:48:12.716Z,22.82
2022-08-19T20:50:41.216Z,22.78
2022-08-19T20:53:13.662Z,22.66
2022-08-19T20:55:45.438Z,22.75
2022-08-19T20:58:14.193Z,22.70
2022-08-19T21:00:45.857Z,22.71
2022-08-19T21:03:20.554Z,22.70
2022-08-19T21:05:49.300Z,22.53
2022-08-19T21:08:18.426Z,22.48
2022-08-19T21:10:52.102Z,22.44
2022-08-19T21:13:20.982Z,22.58
2022-08-19T21:15:50.632Z,22.57
2022-08-19T21:18:23.260Z,22.57
2022-08-19T21:20:51.911Z,22.55
2022-08-19T21:23:27.580Z,22.50
2022-08-19T21:25:59.668Z,22.56
2022-08-19T21:28:35.189Z,22.51
2022-08-19T21:31:07.316Z,22.04
2022-08-19T21:33:35.325Z,22.54
2022-08-19T21:36:05.003Z,22.45
2022-08-19T21:38:33.527Z,22.44
2022-08-19T21:41:06.219Z,22.52
2022-08-19T21:43:38.676Z,22.32
2022-08-19T21:46:07.248Z,22.50
2022-08-19T21:48:36.803Z,22.44
2022-08-19T21:51:04.916Z,22.25
2022-08-19T21:53:34.202Z,22.28
2022-08-19T21:56:04.821Z,22.22
2022-08-19T21:58:33.972Z,22.20
2022-08-19T22:01:07.941Z,22.14
2022-08-19T22:03:38.381Z,21.76
2022-08-19T22:06:06.974Z,21.90
2022-08-19T22:08:35.370Z,21.90
2022-08-19T22:11:05.020Z,21.78
2022-08-19T22:13:39.886Z,21.62
2022-08-19T22:16:09.899Z,21.50
2022-08-19T22:18:38.096Z,21.73
2022-08-19T22:21:11.323Z,21.63
2022-08-19T22:23:45.631Z,21.58
2022-08-19T22:26:18.109Z,21.53
2022-08-19T22:28:46.745Z,21.03
2022-08-19T22:31:15.713Z,21.37
2022-08-19T22:33:44.180Z,21.40
2022-08-19T22:36:12.318Z,21.33
2022-08-19T22:38:40.401Z,21.27
2022-08-19T22:41:08.375Z,21.08
2022-08-19T22:43:37.827Z,21.20
2022-08-19T22:46:16.892Z,21.11
2022-08-19T22:48:48.174Z,21.09
2022-08-19T22:51:43.053Z,21.12
2022-08-19T22:54:11.171Z,21.01
2022-08-19T22:56:39.511Z,20.98
2022-08-19T22:59:08.910Z,21.00
2022-08-19T23:01:37.294Z,20.98
2022-08-19T23:04:05.767Z,20.65
2022-08-19T23:06:35.746Z,20.85
2022-08-19T23:09:08.863Z,20.80
2022-08-19T23:11:42.005Z,20.70
2022-08-19T23:14:12.866Z,20.69
2022-08-19T23:16:41.963Z,20.36
2022-08-19T23:19:11.249Z,20.63
2022-08-19T23:21:41.765Z,20.59
2022-08-19T23:24:10.310Z,20.55
2022-08-19T23:26:38.377Z,20.50
2022-08-19T23:29:25.206Z,20.49
2022-08-19T23:31:53.254Z,20.06
2022-08-19T23:34:21.394Z,20.37
2022-08-19T23:36:50.871Z,20.27
2022-08-19T23:39:19.477Z,20.06
2022-08-19T23:41:48.232Z,20.21
2022-08-19T23:44:16.381Z,20.11
2022-08-19T23:46:54.652Z,20.06
2022-08-19T23:49:25.910Z,20.12
2022-08-19T23:51:55.639Z,19.92
2022-08-19T23:54:27.498Z,20.00
2022-08-19T23:57:13.938Z,20.00
2022-08-19T23:59:45.571Z,19.85
